createdAt,value
2023-01-20T00:00:20.138Z,0.50
2023-01-20T00:04:21.802Z,0.40
2023-01-20T00:08:23.443Z,0.30
2023-01-20T00:12:25.332Z,0.50
2023-01-20T00:16:27.243Z,0.40
2023-01-20T00:20:29.057Z,0.30
2023-01-20T00:24:30.695Z,0.20
2023-01-20T00:28:32.721Z,0.20
2023-01-20T00:32:39.095Z,0.00
2023-01-20T00:36:41.072Z,0.00
2023-01-20T00:40:42.703Z,0.00
2023-01-20T00:50:09.956Z,-0.10
2023-01-20T00:54:11.567Z,-0.20
2023-01-20T00:58:13.296Z,-0.10
2023-01-20T01:02:15.518Z,-0.10
2023-01-20T01:06:43.039Z,-0.10
2023-01-20T01:10:51.680Z,0.00
2023-01-20T01:15:24.700Z,0.00
2023-01-20T01:19:26.305Z,0.20
2023-01-20T01:23:27.903Z,0.10
2023-01-20T01:27:29.507Z,0.10
2023-01-20T01:31:31.123Z,0.10
2023-01-20T01:35:32.730Z,0.10
2023-01-20T01:39:34.288Z,0.10
2023-01-20T01:43:36.721Z,0.10
2023-01-20T01:47:46.612Z,0.10
2023-01-20T01:51:51.322Z,0.00
2023-01-20T01:55:58.494Z,0.00
2023-01-20T02:00:00.145Z,-0.10
2023-01-20T02:04:07.515Z,-0.10
2023-01-20T02:08:09.118Z,-0.30
2023-01-20T02:12:11.924Z,-0.40
2023-01-20T02:16:13.518Z,-0.40
2023-01-20T02:20:29.388Z,-0.20
2023-01-20T02:24:41.132Z,-0.40
2023-01-20T02:28:43.202Z,-0.40
2023-01-20T02:33:04.983Z,-0.40
2023-01-20T02:42:16.570Z,-0.50
2023-01-20T02:46:21.267Z,-0.60
2023-01-20T02:55:34.935Z,-0.60
2023-01-20T02:59:38.934Z,-0.80
2023-01-20T03:03:43.140Z,-0.90
2023-01-20T03:07:45.676Z,-0.80
2023-01-20T03:11:51.206Z,-0.60
2023-01-20T03:15:53.025Z,-0.60
2023-01-20T03:19:54.897Z,-0.60
2023-01-20T03:23:59.664Z,-0.60
2023-01-20T03:28:01.292Z,-0.50
2023-01-20T03:32:03.712Z,-0.50
2023-01-20T03:36:05.520Z,-0.60
2023-01-20T03:40:07.502Z,-0.70
2023-01-20T04:06:45.420Z,-0.50
2023-01-20T04:10:48.446Z,-0.60
2023-01-20T04:14:49.994Z,-0.60
2023-01-20T04:18:52.390Z,-0.60
2023-01-20T04:22:57.828Z,-0.60
2023-01-20T04:26:59.385Z,-0.50
2023-01-20T04:31:01.076Z,-0.40
2023-01-20T04:35:03.414Z,-0.40
2023-01-20T04:39:04.995Z,-0.30
2023-01-20T04:43:06.622Z,-0.30
2023-01-20T04:47:08.364Z,-0.30
2023-01-20T04:51:25.853Z,-0.30
2023-01-20T04:55:27.633Z,-0.40
2023-01-20T04:59:29.233Z,-0.30
2023-01-20T05:03:30.883Z,-0.30
2023-01-20T05:07:32.554Z,-0.20
2023-01-20T05:11:34.119Z,-0.20
2023-01-20T05:15:35.758Z,-0.30
2023-01-20T05:19:37.470Z,-0.50
2023-01-20T05:23:39.037Z,-0.70
2023-01-20T05:27:40.650Z,-0.80
2023-01-20T05:31:43.554Z,-0.80
2023-01-20T05:35:45.522Z,-0.80
2023-01-20T05:39:47.237Z,-0.70
2023-01-20T05:43:48.839Z,-0.70
2023-01-20T05:47:54.363Z,-0.70
2023-01-20T05:51:56.048Z,-0.60
2023-01-20T05:56:04.952Z,-0.70
2023-01-20T06:00:08.689Z,-0.60
2023-01-20T06:04:10.412Z,-0.70
2023-01-20T06:08:12.000Z,-0.60
2023-01-20T06:12:13.571Z,-0.60
2023-01-20T06:16:16.335Z,-0.60
2023-01-20T06:20:18.675Z,-0.60
2023-01-20T06:24:20.240Z,-0.60
2023-01-20T06:28:21.878Z,-0.60
2023-01-20T06:32:23.557Z,-0.70
2023-01-20T06:36:25.361Z,-0.80
2023-01-20T06:40:27.072Z,-0.80
2023-01-20T06:44:28.678Z,-0.90
2023-01-20T06:48:30.576Z,-1.10
2023-01-20T06:52:32.143Z,-1.00
2023-01-20T06:56:33.757Z,-0.80
2023-01-20T07:00:35.388Z,-0.80
2023-01-20T07:04:37.081Z,-0.70
2023-01-20T07:08:38.686Z,-0.50
2023-01-20T07:12:40.442Z,-0.50
2023-01-20T07:16:42.162Z,-0.40
2023-01-20T07:20:43.816Z,-0.30
2023-01-20T07:24:45.436Z,-0.30
2023-01-20T07:28:47.943Z,-0.30
2023-01-20T07:32:49.961Z,-0.30
2023-01-20T07:36:52.394Z,-0.30
2023-01-20T07:40:57.274Z,-0.20
2023-01-20T07:44:58.880Z,-0.20
2023-01-20T07:49:00.744Z,-0.20
2023-01-20T07:53:02.507Z,-0.20
2023-01-20T07:57:04.235Z,-0.20
2023-01-20T08:01:07.218Z,-0.30
2023-01-20T08:05:09.398Z,-0.30
2023-01-20T08:09:12.251Z,-0.20
2023-01-20T08:13:13.831Z,-0.20
2023-01-20T08:17:15.550Z,-0.10
2023-01-20T08:21:21.653Z,-0.10
2023-01-20T08:25:23.269Z,0.10
2023-01-20T08:29:24.923Z,0.20
2023-01-20T08:33:26.547Z,0.30
2023-01-20T08:37:28.121Z,0.40
2023-01-20T08:41:31.773Z,0.50
2023-01-20T08:45:33.555Z,0.60
2023-01-20T08:49:35.301Z,0.70
2023-01-20T08:53:36.864Z,0.70
2023-01-20T08:57:38.630Z,0.80
2023-01-20T09:01:42.133Z,0.80
2023-01-20T09:05:44.023Z,0.80
2023-01-20T09:09:45.958Z,0.90
2023-01-20T09:13:47.619Z,0.90
2023-01-20T09:17:49.511Z,0.90
2023-01-20T09:21:51.122Z,1.00
2023-01-20T09:25:52.728Z,1.10
2023-01-20T09:29:54.363Z,1.20
2023-01-20T09:33:55.957Z,1.40
2023-01-20T09:38:16.496Z,1.50
2023-01-20T09:42:36.563Z,1.50
2023-01-20T09:46:41.000Z,1.60
2023-01-20T09:51:06.622Z,1.60
2023-01-20T09:55:12.492Z,1.60
2023-01-20T09:59:23.175Z,1.50
2023-01-20T10:03:39.205Z,1.60
2023-01-20T10:07:46.261Z,1.60
2023-01-20T10:11:49.442Z,1.60
2023-01-20T10:15:53.564Z,1.60
2023-01-20T10:19:59.813Z,1.60
2023-01-20T10:24:04.700Z,1.70
2023-01-20T10:28:09.501Z,1.70
2023-01-20T10:32:21.610Z,1.70
2023-01-20T10:36:26.850Z,1.90
2023-01-20T10:40:35.130Z,1.80
2023-01-20T10:44:36.987Z,1.80
2023-01-20T10:48:47.605Z,1.80
2023-01-20T10:52:52.381Z,1.90
2023-01-20T10:56:55.594Z,1.70
2023-01-20T11:00:58.497Z,1.80
2023-01-20T11:05:02.328Z,1.70
2023-01-20T11:09:20.374Z,1.60
2023-01-20T11:13:21.969Z,1.60
2023-01-20T11:17:23.587Z,1.70
2023-01-20T11:21:26.196Z,1.70
2023-01-20T11:25:27.871Z,1.80
2023-01-20T11:29:30.552Z,1.70
2023-01-20T11:33:32.206Z,1.60
2023-01-20T11:37:39.597Z,1.60
2023-01-20T11:41:44.323Z,1.40
2023-01-20T11:45:47.238Z,1.40
2023-01-20T11:50:18.357Z,1.40
2023-01-20T11:54:24.214Z,1.40
2023-01-20T11:58:32.260Z,1.30
2023-01-20T12:02:33.812Z,1.20
2023-01-20T12:06:38.610Z,1.10
2023-01-20T12:10:40.464Z,1.20
2023-01-20T12:15:06.000Z,1.10
2023-01-20T12:19:14.548Z,1.00
2023-01-20T12:23:25.463Z,0.90
2023-01-20T12:27:27.725Z,0.90
2023-01-20T12:31:29.894Z,0.80
2023-01-20T12:35:37.253Z,0.70
2023-01-20T12:39:57.472Z,0.70
2023-01-20T12:44:23.216Z,0.70
2023-01-20T12:48:27.968Z,0.80
2023-01-20T12:52:48.531Z,0.70
2023-01-20T12:57:06.676Z,0.60
2023-01-20T13:01:26.941Z,0.50
2023-01-20T13:05:52.041Z,0.60
2023-01-20T13:09:59.920Z,0.60
2023-01-20T13:14:21.792Z,0.60
2023-01-20T13:18:28.162Z,0.50
2023-01-20T13:22:30.236Z,0.70
2023-01-20T13:26:32.578Z,0.60
2023-01-20T13:30:39.342Z,0.60
2023-01-20T13:34:41.063Z,0.70
2023-01-20T13:38:42.988Z,0.70
2023-01-20T13:42:44.547Z,0.60
2023-01-20T13:46:47.503Z,0.50
2023-01-20T13:50:50.343Z,0.60
2023-01-20T13:54:52.112Z,0.60
2023-01-20T13:58:54.134Z,0.50
2023-01-20T14:02:55.966Z,0.60
2023-01-20T14:06:57.693Z,0.50
2023-01-20T14:11:16.524Z,0.60
2023-01-20T14:15:32.090Z,0.60
2023-01-20T14:19:34.996Z,0.60
2023-01-20T14:23:38.003Z,0.70
2023-01-20T14:27:44.059Z,0.70
2023-01-20T14:31:46.293Z,0.70
2023-01-20T14:35:48.094Z,0.60
2023-01-20T14:39:50.425Z,0.70
2023-01-20T14:43:52.074Z,0.70
2023-01-20T14:47:53.868Z,0.70
2023-01-20T14:51:55.578Z,0.70
2023-01-20T14:56:00.762Z,0.70
2023-01-20T15:00:02.611Z,0.70
2023-01-20T15:04:05.928Z,0.80
2023-01-20T15:08:24.427Z,0.80
2023-01-20T15:12:32.924Z,0.80
2023-01-20T15:16:38.795Z,0.70
2023-01-20T15:21:03.868Z,0.80
2023-01-20T15:25:13.645Z,0.80
2023-01-20T15:29:34.679Z,0.80
2023-01-20T15:33:36.271Z,0.70
2023-01-20T15:37:37.858Z,0.70
2023-01-20T15:41:39.504Z,0.70
2023-01-20T15:45:41.344Z,0.80
2023-01-20T15:49:42.971Z,0.70
2023-01-20T15:53:45.239Z,0.60
2023-01-20T15:57:49.507Z,0.70
2023-01-20T16:01:51.493Z,0.70
2023-01-20T16:05:54.390Z,0.80
2023-01-20T16:09:56.011Z,0.70
2023-01-20T16:13:57.963Z,0.60
2023-01-20T16:17:59.578Z,0.60
2023-01-20T16:22:02.996Z,0.70
2023-01-20T16:26:22.657Z,0.70
2023-01-20T16:30:24.747Z,0.60
2023-01-20T16:34:26.322Z,0.70
2023-01-20T16:38:27.942Z,0.60
2023-01-20T16:42:29.554Z,0.70
2023-01-20T16:46:32.729Z,0.70
2023-01-20T16:50:34.443Z,0.70
2023-01-20T16:54:36.060Z,0.70
2023-01-20T16:58:37.762Z,0.70
2023-01-20T17:02:39.589Z,0.70
2023-01-20T17:06:41.321Z,0.70
2023-01-20T17:10:49.011Z,0.70
2023-01-20T17:14:50.682Z,0.80
2023-01-20T17:18:53.365Z,0.80
2023-01-20T17:22:57.875Z,0.80
2023-01-20T17:26:59.715Z,0.80
2023-01-20T17:31:02.754Z,0.80
2023-01-20T17:39:20.289Z,0.90
2023-01-20T17:43:21.861Z,0.80
2023-01-20T17:47:23.453Z,0.70
2023-01-20T17:51:26.023Z,0.70
2023-01-20T17:55:28.082Z,0.70
2023-01-20T17:59:29.655Z,0.60
2023-01-20T18:03:31.265Z,0.50
2023-01-20T18:07:32.834Z,0.50
2023-01-20T18:11:35.716Z,0.30
2023-01-20T18:15:41.206Z,0.30
2023-01-20T18:19:44.213Z,0.20
2023-01-20T18:23:46.603Z,0.00
2023-01-20T18:27:48.245Z,0.00
2023-01-20T18:31:49.917Z,0.00
2023-01-20T18:35:51.918Z,0.10
2023-01-20T18:39:53.535Z,0.20
2023-01-20T18:43:56.483Z,0.10
2023-01-20T18:47:58.064Z,0.10
2023-01-20T18:51:59.679Z,0.20
2023-01-20T18:56:02.303Z,0.30
2023-01-20T19:00:04.095Z,0.30
2023-01-20T19:04:06.561Z,0.20
2023-01-20T19:08:08.269Z,0.20
2023-01-20T19:12:09.854Z,0.10
2023-01-20T19:16:12.805Z,0.00
2023-01-20T19:20:14.794Z,-0.10
2023-01-20T19:24:17.567Z,-0.20
2023-01-20T19:28:19.184Z,-0.30
2023-01-20T19:32:20.798Z,-0.30
2023-01-20T19:36:23.519Z,-0.50
2023-01-20T19:40:25.339Z,-0.50
2023-01-20T19:44:27.653Z,-0.70
2023-01-20T19:48:29.250Z,-0.70
2023-01-20T19:52:30.798Z,-0.90
2023-01-20T19:56:33.483Z,-0.90
2023-01-20T20:00:35.086Z,-0.60
2023-01-20T20:04:36.667Z,-0.40
2023-01-20T20:08:39.013Z,-0.50
2023-01-20T20:12:40.618Z,-0.40
2023-01-20T20:16:42.266Z,-0.30
2023-01-20T20:20:44.755Z,-0.20
2023-01-20T20:24:47.056Z,-0.20
2023-01-20T20:28:51.053Z,-0.10
2023-01-20T20:32:52.658Z,-0.10
2023-01-20T20:36:54.686Z,0.00
2023-01-20T20:40:59.565Z,-0.10
2023-01-20T20:45:01.143Z,0.00
2023-01-20T20:49:03.002Z,0.00
2023-01-20T20:53:04.568Z,-0.10
2023-01-20T20:57:07.604Z,0.00
2023-01-20T21:01:12.708Z,-0.10
2023-01-20T21:05:14.407Z,0.00
2023-01-20T21:09:16.099Z,0.10
2023-01-20T21:13:17.760Z,0.00
2023-01-20T21:17:19.345Z,0.10
2023-01-20T21:21:21.058Z,0.10
2023-01-20T21:25:24.079Z,0.10
2023-01-20T21:29:26.207Z,0.20
2023-01-20T21:33:27.847Z,0.20
2023-01-20T21:37:29.424Z,0.20
2023-01-20T21:41:30.997Z,0.20
2023-01-20T21:45:32.591Z,0.00
2023-01-20T21:49:53.527Z,-0.10
2023-01-20T21:53:55.395Z,-0.20
2023-01-20T21:57:57.396Z,-0.30
2023-01-20T22:01:59.033Z,-0.20
2023-01-20T22:06:02.708Z,-0.30
2023-01-20T22:10:04.863Z,-0.30
2023-01-20T22:14:06.495Z,-0.30
2023-01-20T22:18:08.107Z,-0.50
2023-01-20T22:22:09.814Z,-0.50
2023-01-20T22:26:11.626Z,-0.40
2023-01-20T22:30:13.544Z,-0.60
2023-01-20T22:34:15.143Z,-0.60
2023-01-20T22:38:17.399Z,-0.50
2023-01-20T22:42:19.017Z,-0.60
2023-01-20T22:46:21.116Z,-0.60
2023-01-20T22:50:23.053Z,-0.70
2023-01-20T22:54:24.611Z,-0.60
2023-01-20T22:58:26.201Z,-0.70
2023-01-20T23:02:27.822Z,-0.70
2023-01-20T23:06:32.399Z,-0.90
2023-01-20T23:10:46.237Z,-0.90
2023-01-20T23:15:00.115Z,-0.90
2023-01-20T23:19:02.117Z,-0.70
2023-01-20T23:23:04.005Z,-0.80
2023-01-20T23:27:05.654Z,-0.60
2023-01-20T23:31:08.627Z,-0.70
2023-01-20T23:35:10.275Z,-0.70
2023-01-20T23:39:11.976Z,-0.70
2023-01-20T23:43:13.602Z,-0.80
2023-01-20T23:47:15.224Z,-0.90
2023-01-20T23:51:17.006Z,-1.00
2023-01-20T23:55:18.990Z,-1.10
2023-01-20T23:59:20.576Z,-1.00
